Time;durP1;ratioP1;P1;durP2;ratioP2;P2;SDS_P1;SDS_P2;PMS_P1;PMS_P2;Temp;Humidity;BMP_temperature;BMP_pressure;BME280_temperature;BME280_humidity;BME280_pressure;Samples;Min_cycle;Max_cycle;Signal;HPM_P1;HPM_P2
2022/04/02 00:00:17;;;;;;;19.70;10.98;;;;;;;;;;5012693;28;20029;-66
2022/04/02 00:02:42;;;;;;;18.23;10.07;;;;;;;;;;5011185;28;20022;-66
2022/04/02 00:05:07;;;;;;;23.10;12.25;;;;;;;;;;5008490;28;20025;-65
2022/04/02 00:07:32;;;;;;;21.48;10.85;;;;;;;;;;5008453;28;20116;-71
2022/04/02 00:09:58;;;;;;;21.98;11.10;;;;;;;;;;5004610;28;20029;-68
2022/04/02 00:12:23;;;;;;;16.60;10.55;;;;;;;;;;4988656;28;20026;-68
2022/04/02 00:14:48;;;;;;;19.65;11.25;;;;;;;;;;5011734;28;20021;-68
2022/04/02 00:17:13;;;;;;;21.90;11.55;;;;;;;;;;5006846;28;20033;-68
2022/04/02 00:19:38;;;;;;;19.73;11.60;;;;;;;;;;5006557;28;20029;-69
2022/04/02 00:22:04;;;;;;;30.33;10.43;;;;;;;;;;5007614;28;20028;-68
2022/04/02 00:24:29;;;;;;;18.80;10.40;;;;;;;;;;5014624;28;20066;-69
2022/04/02 00:26:54;;;;;;;21.75;10.52;;;;;;;;;;5008736;28;20112;-68
2022/04/02 00:29:19;;;;;;;24.58;11.25;;;;;;;;;;5010087;28;20026;-69
2022/04/02 00:31:44;;;;;;;17.88;10.93;;;;;;;;;;5011884;28;20034;-69
2022/04/02 00:34:10;;;;;;;27.38;11.75;;;;;;;;;;5013464;28;20117;-67
2022/04/02 00:36:37;;;;;;;19.63;10.43;;;;;;;;;;5007271;28;20014;-69
2022/04/02 00:39:04;;;;;;;19.15;11.38;;;;;;;;;;5012554;28;20021;-68
2022/04/02 00:41:29;;;;;;;21.90;11.68;;;;;;;;;;4984841;28;20406;-68
2022/04/02 00:43:58;;;;;;;21.80;12.23;;;;;;;;;;5016141;28;20025;-67
2022/04/02 00:46:23;;;;;;;22.45;12.18;;;;;;;;;;5006461;28;20034;-67
2022/04/02 00:48:50;;;;;;;23.08;11.82;;;;;;;;;;5011876;28;20429;-67
2022/04/02 00:51:16;;;;;;;22.88;11.80;;;;;;;;;;5004421;28;20029;-67
2022/04/02 00:53:47;;;;;;;24.73;11.82;;;;;;;;;;4995057;28;20014;-66
2022/04/02 00:56:12;;;;;;;;;;;;;;;;;;5008330;28;20022;-66
2022/04/02 00:58:39;;;;;;;23.25;11.88;;;;;;;;;;4992529;28;19912;-66
2022/04/02 01:01:06;;;;;;;23.67;12.55;;;;;;;;;;5008693;28;20121;-66
2022/04/02 01:03:31;;;;;;;29.58;13.43;;;;;;;;;;5015460;28;20037;-66
2022/04/02 01:05:56;;;;;;;29.25;13.65;;;;;;;;;;5003056;28;22050;-67
2022/04/02 01:08:22;;;;;;;25.02;13.77;;;;;;;;;;5012155;28;20109;-67
2022/04/02 01:10:47;;;;;;;28.67;13.63;;;;;;;;;;5003014;28;20017;-67
2022/04/02 01:13:15;;;;;;;23.88;12.40;;;;;;;;;;5015046;28;20010;-67
2022/04/02 01:15:41;;;;;;;25.30;12.98;;;;;;;;;;5010183;28;20022;-67
2022/04/02 01:18:06;;;;;;;25.73;14.07;;;;;;;;;;5009191;28;20516;-67
2022/04/02 01:20:31;;;;;;;28.02;13.73;;;;;;;;;;5001381;28;20038;-67
2022/04/02 01:22:57;;;;;;;32.08;14.30;;;;;;;;;;5011894;28;20029;-68
2022/04/02 01:25:23;;;;;;;30.08;15.38;;;;;;;;;;5009711;28;20026;-68
2022/04/02 01:27:48;;;;;;;35.78;14.70;;;;;;;;;;5009492;28;20029;-68
2022/04/02 01:30:14;;;;;;;32.33;15.20;;;;;;;;;;5006203;28;20093;-67
2022/04/02 01:32:40;;;;;;;30.95;14.82;;;;;;;;;;5010892;28;20101;-68
2022/04/02 01:35:06;;;;;;;36.17;16.27;;;;;;;;;;5004693;28;20157;-67
2022/04/02 01:37:31;;;;;;;31.02;16.05;;;;;;;;;;5005708;28;20104;-68
2022/04/02 01:39:56;;;;;;;34.90;17.02;;;;;;;;;;5007553;28;20022;-67
2022/04/02 01:42:24;;;;;;;40.10;19.20;;;;;;;;;;5004945;28;20037;-68
2022/04/02 01:44:51;;;;;;;40.45;18.13;;;;;;;;;;5008164;28;20109;-68
2022/04/02 01:47:20;;;;;;;40.92;17.88;;;;;;;;;;5005955;28;20026;-68
2022/04/02 01:49:46;;;;;;;42.60;18.85;;;;;;;;;;5010039;28;20021;-66
2022/04/02 01:52:19;;;;;;;43.65;19.13;;;;;;;;;;5006099;28;20055;-66
2022/04/02 01:54:44;;;;;;;45.08;21.30;;;;;;;;;;5001581;28;20482;-68
2022/04/02 01:57:10;;;;;;;47.72;20.25;;;;;;;;;;5008115;28;20124;-68
2022/04/02 01:59:35;;;;;;;41.40;19.20;;;;;;;;;;5001372;28;20018;-67
2022/04/02 02:02:00;;;;;;;41.00;20.17;;;;;;;;;;5003820;28;20056;-68
2022/04/02 02:04:26;;;;;;;42.17;21.88;;;;;;;;;;5006038;28;20076;-66
2022/04/02 02:06:51;;;;;;;40.50;19.10;;;;;;;;;;5009193;28;20533;-68
2022/04/02 02:09:16;;;;;;;50.63;20.60;;;;;;;;;;5010644;28;20025;-67
2022/04/02 02:11:42;;;;;;;36.45;18.05;;;;;;;;;;5009811;28;20018;-67
2022/04/02 02:14:07;;;;;;;32.38;16.33;;;;;;;;;;5006667;28;20561;-68
2022/04/02 02:16:33;;;;;;;45.38;16.67;;;;;;;;;;5007932;28;20069;-66
2022/04/02 02:18:58;;;;;;;34.45;16.70;;;;;;;;;;5004495;28;20028;-66
2022/04/02 02:21:23;;;;;;;34.58;16.77;;;;;;;;;;5009341;28;20029;-67
2022/04/02 02:23:48;;;;;;;34.25;15.35;;;;;;;;;;5003400;28;20049;-67
2022/04/02 02:26:14;;;;;;;27.88;14.90;;;;;;;;;;5009741;28;20102;-68
2022/04/02 02:28:41;;;;;;;29.60;15.07;;;;;;;;;;5010491;28;20494;-67
2022/04/02 02:31:06;;;;;;;28.17;15.32;;;;;;;;;;5009985;28;20037;-67
2022/04/02 02:36:17;;;;;;;28.67;14.82;;;;;;;;;;5002084;28;20068;-67
2022/04/02 02:38:42;;;;;;;33.58;15.55;;;;;;;;;;5005950;28;20479;-66
2022/04/02 02:41:10;;;;;;;31.42;16.05;;;;;;;;;;5011404;28;20026;-68
2022/04/02 02:43:35;;;;;;;33.85;15.52;;;;;;;;;;5005997;28;20030;-68
2022/04/02 02:46:00;;;;;;;30.73;14.35;;;;;;;;;;5007799;28;20033;-69
2022/04/02 02:48:25;;;;;;;36.53;15.27;;;;;;;;;;5003733;28;20068;-67
2022/04/02 02:50:51;;;;;;;32.03;15.23;;;;;;;;;;5010821;28;20075;-67
2022/04/02 02:53:16;;;;;;;25.80;13.90;;;;;;;;;;5004295;28;20014;-67
2022/04/02 02:55:41;;;;;;;31.23;14.90;;;;;;;;;;5000747;28;20028;-66
2022/04/02 02:58:08;;;;;;;37.25;14.65;;;;;;;;;;5002897;28;20050;-67
2022/04/02 03:00:33;;;;;;;28.30;13.65;;;;;;;;;;5004316;28;20080;-68
2022/04/02 03:02:58;;;;;;;28.65;13.55;;;;;;;;;;5007658;28;20022;-65
2022/04/02 03:05:23;;;;;;;29.63;13.25;;;;;;;;;;5004685;28;20474;-67
2022/04/02 03:07:49;;;;;;;27.40;14.38;;;;;;;;;;5009228;28;20025;-66
2022/04/02 03:10:15;;;;;;;27.58;14.52;;;;;;;;;;5007967;28;20026;-67
2022/04/02 03:12:41;;;;;;;26.83;14.93;;;;;;;;;;5006613;28;20022;-66
2022/04/02 03:15:06;;;;;;;30.30;14.77;;;;;;;;;;5003748;28;20028;-66
2022/04/02 03:17:31;;;;;;;29.95;14.93;;;;;;;;;;5010119;28;20018;-67
2022/04/02 03:19:58;;;;;;;34.95;15.57;;;;;;;;;;5016178;28;20386;-66
2022/04/02 03:22:24;;;;;;;27.98;14.90;;;;;;;;;;5008954;28;20049;-66
2022/04/02 03:24:49;;;;;;;24.05;13.43;;;;;;;;;;5010072;28;20033;-66
2022/04/02 03:27:14;;;;;;;29.42;13.05;;;;;;;;;;5007741;28;20101;-66
2022/04/02 03:29:39;;;;;;;22.25;12.30;;;;;;;;;;5018786;28;20465;-66
2022/04/02 03:32:05;;;;;;;24.67;12.98;;;;;;;;;;5011862;28;20021;-66
2022/04/02 03:34:30;;;;;;;25.85;11.55;;;;;;;;;;5012166;28;20413;-66
2022/04/02 03:36:55;;;;;;;20.05;10.85;;;;;;;;;;5008320;28;20026;-66
2022/04/02 03:39:20;;;;;;;18.00;9.95;;;;;;;;;;5012509;28;20022;-66
2022/04/02 03:41:46;;;;;;;21.33;9.93;;;;;;;;;;5010616;28;20394;-66
2022/04/02 03:44:11;;;;;;;18.15;9.57;;;;;;;;;;5006098;28;20045;-66
2022/04/02 03:49:21;;;;;;;16.52;8.75;;;;;;;;;;5013211;28;20029;-66
2022/04/02 03:51:46;;;;;;;17.50;7.82;;;;;;;;;;5010282;28;20547;-66
2022/04/02 03:54:11;;;;;;;20.10;6.93;;;;;;;;;;5006091;28;20026;-66
2022/04/02 03:56:37;;;;;;;12.82;6.53;;;;;;;;;;5008654;28;20025;-66
2022/04/02 03:59:03;;;;;;;15.20;6.97;;;;;;;;;;5010780;28;20026;-66
2022/04/02 04:01:28;;;;;;;14.27;6.63;;;;;;;;;;5010054;28;20021;-66
2022/04/02 04:03:53;;;;;;;17.98;6.38;;;;;;;;;;5009791;28;20030;-65
2022/04/02 04:06:19;;;;;;;16.00;5.85;;;;;;;;;;5007495;28;20109;-66
2022/04/02 04:08:44;;;;;;;16.23;5.57;;;;;;;;;;5011498;28;20025;-66
2022/04/02 04:11:10;;;;;;;13.77;5.18;;;;;;;;;;5007805;28;20026;-66
2022/04/02 04:13:35;;;;;;;12.82;5.30;;;;;;;;;;5005721;28;20018;-66
2022/04/02 04:16:01;;;;;;;14.93;4.63;;;;;;;;;;5005161;28;20018;-66
2022/04/02 04:18:27;;;;;;;10.15;4.63;;;;;;;;;;5012900;28;20020;-66
2022/04/02 04:20:53;;;;;;;9.73;4.88;;;;;;;;;;5012487;28;20025;-66
2022/04/02 04:23:18;;;;;;;7.20;3.85;;;;;;;;;;5008160;28;20550;-66
2022/04/02 04:25:43;;;;;;;9.18;4.35;;;;;;;;;;5004154;28;20034;-66
2022/04/02 04:28:08;;;;;;;8.70;3.88;;;;;;;;;;5009639;28;20025;-65
2022/04/02 04:30:34;;;;;;;8.40;3.35;;;;;;;;;;5011221;28;20100;-66
2022/04/02 04:32:59;;;;;;;12.05;3.70;;;;;;;;;;5009268;28;20474;-66
2022/04/02 04:35:24;;;;;;;8.40;3.28;;;;;;;;;;5005963;28;20014;-66
2022/04/02 04:37:51;;;;;;;9.15;3.20;;;;;;;;;;5004385;28;20022;-66
2022/04/02 04:40:16;;;;;;;7.57;3.28;;;;;;;;;;5008535;28;20018;-66
2022/04/02 04:42:42;;;;;;;10.40;3.25;;;;;;;;;;5011585;28;20029;-66
2022/04/02 04:45:07;;;;;;;7.38;3.00;;;;;;;;;;5002490;28;20021;-66
2022/04/02 04:47:32;;;;;;;7.75;2.95;;;;;;;;;;5011083;28;20140;-66
2022/04/02 04:49:58;;;;;;;10.18;3.60;;;;;;;;;;5009159;28;20061;-66
2022/04/02 04:52:23;;;;;;;5.30;3.17;;;;;;;;;;5013889;28;20014;-66
2022/04/02 04:54:48;;;;;;;9.55;3.58;;;;;;;;;;5009263;28;20032;-66
2022/04/02 04:57:13;;;;;;;7.38;2.90;;;;;;;;;;5003530;28;20014;-65
2022/04/02 04:59:38;;;;;;;5.60;2.70;;;;;;;;;;5007517;28;20029;-66
2022/04/02 05:02:04;;;;;;;13.73;2.90;;;;;;;;;;5004640;28;20122;-66
2022/04/02 05:04:30;;;;;;;11.13;3.22;;;;;;;;;;5009564;28;20033;-65
2022/04/02 05:06:55;;;;;;;10.35;3.10;;;;;;;;;;5005397;28;20018;-66
2022/04/02 05:09:21;;;;;;;6.60;2.95;;;;;;;;;;5010896;28;20025;-66
2022/04/02 05:11:46;;;;;;;9.73;2.45;;;;;;;;;;5002466;28;20025;-65
2022/04/02 05:14:13;;;;;;;8.20;2.63;;;;;;;;;;5009892;28;20021;-65
2022/04/02 05:16:38;;;;;;;8.38;3.08;;;;;;;;;;5009159;28;20071;-66
2022/04/02 05:19:03;;;;;;;10.95;2.75;;;;;;;;;;5005767;28;20022;-66
2022/04/02 05:21:29;;;;;;;5.13;2.60;;;;;;;;;;5005281;28;20030;-66
2022/04/02 05:23:54;;;;;;;7.93;3.10;;;;;;;;;;5007684;28;20108;-66
2022/04/02 05:26:19;;;;;;;9.75;2.40;;;;;;;;;;5018108;28;20065;-66
2022/04/02 05:28:44;;;;;;;7.95;3.55;;;;;;;;;;5003990;28;20108;-66
2022/04/02 05:31:10;;;;;;;5.43;2.63;;;;;;;;;;5010942;28;20083;-65
2022/04/02 05:33:35;;;;;;;9.52;3.00;;;;;;;;;;5004620;28;20514;-66
2022/04/02 05:36:00;;;;;;;11.38;3.45;;;;;;;;;;5009736;28;20017;-66
2022/04/02 05:38:27;;;;;;;8.70;2.60;;;;;;;;;;4998075;28;20037;-65
2022/04/02 05:40:52;;;;;;;5.93;2.85;;;;;;;;;;5000871;28;20029;-66
2022/04/02 05:43:17;;;;;;;5.47;2.65;;;;;;;;;;5006978;28;20117;-66
2022/04/02 05:45:42;;;;;;;5.80;2.83;;;;;;;;;;5002083;28;20029;-66
2022/04/02 05:48:08;;;;;;;6.90;2.53;;;;;;;;;;4996704;28;20475;-66
2022/04/02 05:50:33;;;;;;;9.27;3.10;;;;;;;;;;4995617;28;20022;-66
2022/04/02 05:52:59;;;;;;;8.80;3.42;;;;;;;;;;5001434;28;20057;-66
2022/04/02 05:55:24;;;;;;;8.15;3.97;;;;;;;;;;4997640;28;20105;-66
2022/04/02 05:57:49;;;;;;;8.13;2.78;;;;;;;;;;5011583;28;20416;-66
2022/04/02 06:00:16;;;;;;;5.00;2.67;;;;;;;;;;5007539;28;20142;-66
2022/04/02 06:02:43;;;;;;;10.35;3.65;;;;;;;;;;5008713;28;20030;-65
2022/04/02 06:05:08;;;;;;;5.35;2.67;;;;;;;;;;5010301;28;20026;-65
2022/04/02 06:07:34;;;;;;;10.23;2.95;;;;;;;;;;5002184;28;20466;-65
2022/04/02 06:09:59;;;;;;;5.35;2.40;;;;;;;;;;5005561;28;20022;-65
2022/04/02 06:12:24;;;;;;;5.55;2.50;;;;;;;;;;5006643;28;20437;-65
2022/04/02 06:14:50;;;;;;;5.65;2.63;;;;;;;;;;5009103;28;20355;-65
2022/04/02 06:17:15;;;;;;;8.63;2.72;;;;;;;;;;4998246;28;20109;-66
2022/04/02 06:19:40;;;;;;;7.80;2.85;;;;;;;;;;5000175;28;20161;-65
2022/04/02 06:22:06;;;;;;;5.47;2.85;;;;;;;;;;5008247;28;20040;-65
2022/04/02 06:24:32;;;;;;;10.35;2.90;;;;;;;;;;4999829;28;20121;-65
2022/04/02 06:26:57;;;;;;;8.45;2.95;;;;;;;;;;5000903;28;20112;-65
2022/04/02 06:29:23;;;;;;;7.07;2.67;;;;;;;;;;5001495;28;20022;-66
2022/04/02 06:31:48;;;;;;;8.40;3.22;;;;;;;;;;5005796;28;20021;-66
2022/04/02 06:34:13;;;;;;;6.70;2.95;;;;;;;;;;5005436;28;20561;-66
2022/04/02 06:36:38;;;;;;;6.80;3.55;;;;;;;;;;5006944;28;20020;-66
2022/04/02 06:39:03;;;;;;;9.40;3.47;;;;;;;;;;5002260;28;20401;-66
2022/04/02 06:41:29;;;;;;;4.53;2.45;;;;;;;;;;5004155;28;20441;-66
2022/04/02 06:43:54;;;;;;;3.65;2.45;;;;;;;;;;5007810;28;20018;-65
2022/04/02 06:46:19;;;;;;;7.60;3.08;;;;;;;;;;4996859;28;20045;-66
2022/04/02 06:48:44;;;;;;;6.65;3.10;;;;;;;;;;4997854;28;20044;-66
2022/04/02 06:51:10;;;;;;;11.45;3.25;;;;;;;;;;5010946;28;20053;-66
2022/04/02 06:53:35;;;;;;;9.05;3.75;;;;;;;;;;5011992;28;20099;-66
2022/04/02 06:56:00;;;;;;;6.65;2.63;;;;;;;;;;5009370;28;20556;-66
2022/04/02 06:58:27;;;;;;;6.57;3.38;;;;;;;;;;5008124;28;20030;-66
2022/04/02 07:00:53;;;;;;;6.88;2.85;;;;;;;;;;5011877;28;20052;-66
2022/04/02 07:03:18;;;;;;;6.32;3.08;;;;;;;;;;5008290;28;20390;-66
2022/04/02 07:05:43;;;;;;;7.63;3.33;;;;;;;;;;5009952;28;20506;-65
2022/04/02 07:08:08;;;;;;;8.57;3.45;;;;;;;;;;5011835;28;20022;-65
2022/04/02 07:10:33;;;;;;;8.23;2.40;;;;;;;;;;5013771;28;20069;-66
2022/04/02 07:12:59;;;;;;;6.68;3.05;;;;;;;;;;5010430;28;20467;-66
2022/04/02 07:15:24;;;;;;;6.45;2.97;;;;;;;;;;5018895;28;20056;-66
2022/04/02 07:17:49;;;;;;;12.50;3.10;;;;;;;;;;5010633;28;20376;-66
2022/04/02 07:20:17;;;;;;;8.07;3.13;;;;;;;;;;5011798;28;20108;-66
2022/04/02 07:22:43;;;;;;;4.28;2.63;;;;;;;;;;5011728;28;20041;-66
2022/04/02 07:25:09;;;;;;;12.05;3.58;;;;;;;;;;5014610;28;20370;-66
2022/04/02 07:27:36;;;;;;;5.10;3.22;;;;;;;;;;5013116;28;20021;-66
2022/04/02 07:30:02;;;;;;;5.53;2.60;;;;;;;;;;5013913;28;20021;-66
2022/04/02 07:32:27;;;;;;;6.25;2.75;;;;;;;;;;5009749;28;20356;-66
2022/04/02 07:34:52;;;;;;;7.60;2.90;;;;;;;;;;5006207;28;20490;-66
2022/04/02 07:37:27;;;;;;;11.85;4.50;;;;;;;;;;5012567;28;20018;-66
2022/04/02 07:40:06;;;;;;;7.03;2.88;;;;;;;;;;5007691;28;20080;-66
2022/04/02 07:42:43;;;;;;;14.50;3.50;;;;;;;;;;5012888;28;20034;-66
2022/04/02 07:45:10;;;;;;;7.35;3.05;;;;;;;;;;5016262;28;20026;-66
2022/04/02 07:47:37;;;;;;;9.98;2.85;;;;;;;;;;5009115;28;20068;-66
2022/04/02 07:50:06;;;;;;;4.82;2.58;;;;;;;;;;5014191;28;20075;-66
2022/04/02 07:52:32;;;;;;;8.40;3.00;;;;;;;;;;5007375;28;20022;-66
2022/04/02 07:54:58;;;;;;;5.85;2.50;;;;;;;;;;5013848;28;20036;-66
2022/04/02 07:57:24;;;;;;;5.38;2.58;;;;;;;;;;5004601;28;20017;-66
2022/04/02 07:59:55;;;;;;;7.10;2.78;;;;;;;;;;5011341;28;20084;-66
2022/04/02 08:02:38;;;;;;;6.40;2.88;;;;;;;;;;5002395;28;20021;-66
2022/04/02 08:05:05;;;;;;;8.30;3.05;;;;;;;;;;5009815;28;20030;-66
2022/04/02 08:07:31;;;;;;;13.35;3.20;;;;;;;;;;5011601;28;20022;-66
2022/04/02 08:09:57;;;;;;;7.22;2.85;;;;;;;;;;5011171;28;20088;-66
2022/04/02 08:12:23;;;;;;;6.88;2.90;;;;;;;;;;4999936;28;20157;-66
2022/04/02 08:14:50;;;;;;;4.97;3.10;;;;;;;;;;5008981;28;20060;-66
2022/04/02 08:17:15;;;;;;;11.48;3.00;;;;;;;;;;5009734;28;20109;-66
2022/04/02 08:19:41;;;;;;;8.02;3.30;;;;;;;;;;5015052;28;20554;-66
2022/04/02 08:22:06;;;;;;;7.60;3.20;;;;;;;;;;5008418;28;20101;-67
2022/04/02 08:24:31;;;;;;;10.88;3.28;;;;;;;;;;5009100;28;20109;-66
2022/04/02 08:27:01;;;;;;;7.00;3.20;;;;;;;;;;5011910;28;20018;-67
2022/04/02 08:29:35;;;;;;;5.97;2.80;;;;;;;;;;5005359;28;20040;-67
2022/04/02 08:32:23;;;;;;;5.60;3.60;;;;;;;;;;5008056;28;20045;-66
2022/04/02 08:35:05;;;;;;;8.32;4.22;;;;;;;;;;4971569;28;20029;-65
2022/04/02 08:37:49;;;;;;;7.93;3.20;;;;;;;;;;5007570;28;20156;-67
2022/04/02 08:40:33;;;;;;;7.63;3.83;;;;;;;;;;4985568;28;20030;-66
2022/04/02 08:43:05;;;;;;;7.10;2.83;;;;;;;;;;4984168;28;20010;-66
2022/04/02 08:45:32;;;;;;;7.65;3.30;;;;;;;;;;5009156;28;20075;-66
2022/04/02 08:48:18;;;;;;;5.95;3.63;;;;;;;;;;5006611;28;20022;-66
2022/04/02 08:50:53;;;;;;;5.97;3.05;;;;;;;;;;5008113;28;20025;-65
2022/04/02 08:53:34;;;;;;;11.48;3.65;;;;;;;;;;4998473;28;20025;-67
2022/04/02 08:56:03;;;;;;;8.82;3.90;;;;;;;;;;5005746;28;20474;-66
2022/04/02 08:58:34;;;;;;;7.97;2.95;;;;;;;;;;5006566;28;20041;-67
2022/04/02 09:01:07;;;;;;;10.25;3.47;;;;;;;;;;5007591;28;20101;-66
2022/04/02 09:04:01;;;;;;;8.80;3.05;;;;;;;;;;5005254;28;20064;-67
2022/04/02 09:06:44;;;;;;;5.28;3.05;;;;;;;;;;5003663;28;20427;-70
2022/04/02 09:09:28;;;;;;;6.40;3.10;;;;;;;;;;5007710;28;20371;-66
2022/04/02 09:12:12;;;;;;;8.73;3.20;;;;;;;;;;5010613;28;20022;-68
2022/04/02 09:14:52;;;;;;;5.93;3.13;;;;;;;;;;5006083;28;20026;-68
2022/04/02 09:17:19;;;;;;;8.85;4.20;;;;;;;;;;4995451;28;20071;-67
2022/04/02 09:22:29;;;;;;;7.55;3.25;;;;;;;;;;5009765;23;20050;-85
2022/04/02 09:25:27;;;;;;;5.43;2.95;;;;;;;;;;4955694;28;20031;-83
2022/04/02 09:28:24;;;;;;;7.03;2.80;;;;;;;;;;4886169;28;21159;-85
2022/04/02 09:31:02;;;;;;;7.25;3.10;;;;;;;;;;4971158;28;20052;-83
2022/04/02 09:33:38;;;;;;;6.45;3.10;;;;;;;;;;4975104;28;20018;-83
2022/04/02 09:36:04;;;;;;;7.35;3.35;;;;;;;;;;4970867;28;20023;-88
2022/04/02 09:38:50;;;;;;;8.07;4.03;;;;;;;;;;4971254;28;20023;-86
2022/04/02 09:41:18;;;;;;;5.70;3.13;;;;;;;;;;4968734;28;20035;-85
2022/04/02 09:44:07;;;;;;;6.43;3.65;;;;;;;;;;4971412;28;20128;-84
2022/04/02 09:46:50;;;;;;;10.02;3.28;;;;;;;;;;4962753;28;20034;-86
2022/04/02 09:49:24;;;;;;;8.43;3.55;;;;;;;;;;4953980;28;20273;-86
2022/04/02 09:52:11;;;;;;;8.45;4.05;;;;;;;;;;4953104;28;20057;-86
2022/04/02 09:54:39;;;;;;;9.00;3.53;;;;;;;;;;4977148;28;20030;-85
2022/04/02 09:57:09;;;;;;;7.05;3.15;;;;;;;;;;4994083;28;20003;-84
2022/04/02 09:59:34;;;;;;;7.38;3.63;;;;;;;;;;4993084;28;20027;-85
2022/04/02 10:02:06;;;;;;;10.60;4.00;;;;;;;;;;4984928;28;20110;-87
2022/04/02 10:05:15;;;;;;;7.97;2.75;;;;;;;;;;4969307;28;20050;-84
2022/04/02 10:07:49;;;;;;;9.57;3.13;;;;;;;;;;4875664;29;20024;-86
2022/04/02 10:10:25;;;;;;;8.18;3.78;;;;;;;;;;4962910;28;20081;-87
2022/04/02 10:12:55;;;;;;;9.68;3.25;;;;;;;;;;4970164;28;20025;-87
2022/04/02 10:18:39;;;;;;;7.68;3.38;;;;;;;;;;4963921;28;20023;-86
2022/04/02 10:21:13;;;;;;;14.10;3.80;;;;;;;;;;4970478;28;20037;-87
2022/04/02 10:23:41;;;;;;;8.25;3.50;;;;;;;;;;4955621;28;20093;-86
2022/04/02 10:26:12;;;;;;;10.25;3.50;;;;;;;;;;4972816;28;20027;-85
2022/04/02 10:28:40;;;;;;;7.00;3.22;;;;;;;;;;4969067;28;20786;-85
2022/04/02 10:31:06;;;;;;;6.45;3.03;;;;;;;;;;4974343;28;20019;-88
2022/04/02 10:33:34;;;;;;;8.15;3.25;;;;;;;;;;4971296;28;20541;-87
2022/04/02 10:36:03;;;;;;;5.35;2.60;;;;;;;;;;4956257;28;20094;-86
2022/04/02 10:38:39;;;;;;;4.07;2.85;;;;;;;;;;4955510;28;20027;-85
2022/04/02 10:41:10;;;;;;;7.63;2.67;;;;;;;;;;4972826;28;20081;-83
2022/04/02 10:43:39;;;;;;;7.75;2.72;;;;;;;;;;4979594;28;20026;-86
2022/04/02 10:46:08;;;;;;;6.70;3.30;;;;;;;;;;4954826;28;20520;-88
2022/04/02 10:48:40;;;;;;;6.43;2.28;;;;;;;;;;4956424;28;20110;-84
2022/04/02 10:51:07;;;;;;;9.30;3.05;;;;;;;;;;4974264;28;20051;-88
2022/04/02 10:53:38;;;;;;;6.65;3.03;;;;;;;;;;4972897;28;20022;-88
2022/04/02 10:56:06;;;;;;;5.82;2.38;;;;;;;;;;4955781;28;20023;-85
2022/04/02 10:58:44;;;;;;;7.55;3.47;;;;;;;;;;4972300;28;20026;-85
2022/04/02 11:01:12;;;;;;;6.40;3.08;;;;;;;;;;4976886;28;20030;-85
2022/04/02 11:03:43;;;;;;;5.90;2.92;;;;;;;;;;4971413;28;20491;-86
2022/04/02 11:06:11;;;;;;;5.57;3.08;;;;;;;;;;4977642;28;20030;-86
2022/04/02 11:08:37;;;;;;;9.80;3.28;;;;;;;;;;4952244;28;20023;-85
2022/04/02 11:11:16;;;;;;;8.45;2.85;;;;;;;;;;4968380;28;20113;-86
2022/04/02 11:13:43;;;;;;;6.40;3.65;;;;;;;;;;4967964;28;20077;-85
2022/04/02 11:16:15;;;;;;;9.43;2.85;;;;;;;;;;4969328;28;20385;-84
2022/04/02 11:19:53;;;;;;;6.20;3.70;;;;;;;;;;4951803;28;20030;-87
2022/04/02 11:21:55;;;;;;;4.65;2.95;;;;;;;;;;4964646;28;20089;-86
2022/04/02 11:24:24;;;;;;;4.90;2.83;;;;;;;;;;4903994;28;20033;-84
2022/04/02 11:26:50;;;;;;;7.13;2.55;;;;;;;;;;4978939;28;20019;-84
2022/04/02 11:32:32;;;;;;;;;;;;;;;;;;4960406;28;20028;-87
2022/04/02 11:38:31;;;;;;;8.82;3.28;;;;;;;;;;4956597;28;20023;-85
2022/04/02 11:44:19;;;;;;;10.03;4.13;;;;;;;;;;4940098;28;20070;-87
2022/04/02 11:47:11;;;;;;;5.05;4.00;;;;;;;;;;4957009;28;20034;-88
2022/04/02 11:50:22;;;;;;;5.32;3.67;;;;;;;;;;4974982;28;20585;-88
2022/04/02 11:52:22;;;;;;;6.40;3.35;;;;;;;;;;4968536;28;20027;-87
2022/04/02 11:54:57;;;;;;;9.65;3.38;;;;;;;;;;4970411;28;20033;-89
2022/04/02 11:57:28;;;;;;;7.18;2.92;;;;;;;;;;4977780;28;20019;-91
2022/04/02 12:00:07;;;;;;;;;;;;;;;;;;;;;
2022/04/02 12:02:35;;;;;;;4.80;2.90;;;;;;;;;;4975028;28;20040;-88
2022/04/02 12:05:20;;;;;;;5.38;2.90;;;;;;;;;;4956537;28;20034;-88
2022/04/02 12:08:01;;;;;;;5.10;3.38;;;;;;;;;;4978050;28;20026;-90
2022/04/02 12:14:14;;;;;;;6.85;3.38;;;;;;;;;;4950389;28;20018;-89
2022/04/02 12:16:52;;;;;;;8.13;3.67;;;;;;;;;;4914916;28;20511;-88
2022/04/02 12:19:24;;;;;;;7.53;3.88;;;;;;;;;;4994832;28;20301;-88
2022/04/02 12:21:52;;;;;;;6.10;3.10;;;;;;;;;;4966661;28;20086;-88
2022/04/02 12:24:47;;;;;;;8.57;4.03;;;;;;;;;;4953127;28;20027;-89
2022/04/02 12:27:19;;;;;;;5.28;3.03;;;;;;;;;;4980366;28;20026;-89
2022/04/02 12:30:02;;;;;;;6.43;3.33;;;;;;;;;;4969482;28;20100;-89
2022/04/02 12:32:39;;;;;;;7.43;4.40;;;;;;;;;;4962192;28;20015;-89
2022/04/02 12:35:08;;;;;;;8.45;3.78;;;;;;;;;;4957680;28;20037;-88
2022/04/02 12:37:59;;;;;;;7.55;3.63;;;;;;;;;;4958162;28;20050;-88
2022/04/02 12:40:27;;;;;;;;;;;;;;;;;;4972555;28;20517;-88
2022/04/02 12:43:00;;;;;;;9.90;3.40;;;;;;;;;;4971911;28;19972;-88
2022/04/02 12:48:28;;;;;;;6.65;3.42;;;;;;;;;;4932793;29;20402;-88
2022/04/02 12:51:07;;;;;;;11.10;4.43;;;;;;;;;;4911896;29;20024;-89
2022/04/02 12:53:55;;;;;;;9.70;3.58;;;;;;;;;;4946007;28;20533;-87
2022/04/02 12:56:28;;;;;;;9.48;4.13;;;;;;;;;;4939291;29;20052;-88
2022/04/02 12:59:00;;;;;;;7.00;4.03;;;;;;;;;;4940837;28;20117;-88
2022/04/02 13:01:33;;;;;;;9.40;3.88;;;;;;;;;;4972499;28;20035;-88
2022/04/02 13:04:06;;;;;;;9.18;3.72;;;;;;;;;;4974727;28;20411;-89
2022/04/02 13:06:48;;;;;;;6.70;4.10;;;;;;;;;;4973960;28;20630;-88
2022/04/02 13:09:33;;;;;;;11.73;4.68;;;;;;;;;;4966358;28;20062;-88
2022/04/02 13:12:10;;;;;;;12.57;4.68;;;;;;;;;;4959313;28;20443;-87
2022/04/02 13:14:45;;;;;;;6.47;4.18;;;;;;;;;;4958217;28;20066;-87
2022/04/02 13:20:41;;;;;;;7.63;3.92;;;;;;;;;;4890554;29;20025;-88
2022/04/02 13:26:48;;;;;;;11.23;5.38;;;;;;;;;;4880446;29;20083;-88
2022/04/02 13:29:35;;;;;;;15.07;5.40;;;;;;;;;;4879477;29;20116;-87
2022/04/02 13:32:22;;;;;;;11.10;4.68;;;;;;;;;;4887254;29;20039;-87
2022/04/02 13:38:19;;;;;;;14.65;6.28;;;;;;;;;;4897308;29;20497;-87
2022/04/02 13:47:25;;;;;;;9.48;5.57;;;;;;;;;;4895131;29;20068;-87
2022/04/02 13:53:24;;;;;;;;;;;;;;;;;;;;;
2022/04/02 13:55:52;;;;;;;11.63;5.78;;;;;;;;;;4974067;23;20842;-67
2022/04/02 13:58:22;;;;;;;8.82;4.95;;;;;;;;;;5010890;28;20021;-68
2022/04/02 14:00:51;;;;;;;10.10;5.60;;;;;;;;;;5011093;28;20026;-68
2022/04/02 14:03:17;;;;;;;11.93;4.82;;;;;;;;;;5009864;28;20064;-67
2022/04/02 14:05:43;;;;;;;11.70;6.40;;;;;;;;;;4996813;28;20141;-67
2022/04/02 14:08:11;;;;;;;7.35;4.47;;;;;;;;;;4991730;28;20030;-67
2022/04/02 14:10:40;;;;;;;10.50;5.03;;;;;;;;;;4991305;28;20450;-68
2022/04/02 14:13:17;;;;;;;9.23;5.18;;;;;;;;;;4991327;28;20037;-67
2022/04/02 14:16:03;;;;;;;9.05;5.63;;;;;;;;;;4992422;28;20101;-68
2022/04/02 14:18:38;;;;;;;7.45;5.10;;;;;;;;;;4990376;28;20487;-68
2022/04/02 14:21:17;;;;;;;9.77;5.20;;;;;;;;;;4997519;28;20417;-68
2022/04/02 14:23:51;;;;;;;7.90;4.55;;;;;;;;;;5010688;28;20545;-67
2022/04/02 14:26:19;;;;;;;7.40;5.07;;;;;;;;;;5004080;28;20040;-68
2022/04/02 14:28:50;;;;;;;6.97;4.20;;;;;;;;;;4991376;28;20459;-68
2022/04/02 14:31:30;;;;;;;6.22;3.88;;;;;;;;;;4990730;28;20092;-67
2022/04/02 14:33:55;;;;;;;7.40;4.00;;;;;;;;;;4991452;28;20018;-68
2022/04/02 14:36:34;;;;;;;7.03;4.07;;;;;;;;;;5008930;28;20552;-68
2022/04/02 14:39:11;;;;;;;6.28;3.17;;;;;;;;;;4998932;28;20022;-68
2022/04/02 14:41:55;;;;;;;6.82;3.47;;;;;;;;;;4990876;28;20030;-68
2022/04/02 14:44:50;;;;;;;6.15;3.88;;;;;;;;;;4990779;28;20022;-68
2022/04/02 14:47:18;;;;;;;7.63;3.30;;;;;;;;;;4991250;28;20041;-68
2022/04/02 14:50:02;;;;;;;8.10;4.15;;;;;;;;;;4990580;28;20073;-68
2022/04/02 14:52:39;;;;;;;7.13;3.25;;;;;;;;;;4996131;28;20020;-67
2022/04/02 14:55:23;;;;;;;5.57;3.30;;;;;;;;;;4996115;28;20018;-69
2022/04/02 14:58:15;;;;;;;6.72;3.83;;;;;;;;;;4990817;28;20114;-67
2022/04/02 15:00:59;;;;;;;6.47;3.17;;;;;;;;;;4974730;28;20364;-67
2022/04/02 15:03:36;;;;;;;8.63;2.90;;;;;;;;;;4991008;28;20019;-67
2022/04/02 15:06:04;;;;;;;8.45;3.60;;;;;;;;;;4993307;28;20050;-67
2022/04/02 15:08:44;;;;;;;6.53;2.78;;;;;;;;;;5006238;28;20360;-67
2022/04/02 15:11:14;;;;;;;6.78;3.55;;;;;;;;;;5010532;28;20018;-67
2022/04/02 15:13:50;;;;;;;9.00;3.42;;;;;;;;;;5012106;28;20033;-67
2022/04/02 15:16:24;;;;;;;9.20;3.33;;;;;;;;;;5014337;28;20097;-68
2022/04/02 15:18:49;;;;;;;5.47;2.92;;;;;;;;;;5014250;28;20056;-68
2022/04/02 15:21:14;;;;;;;5.22;2.83;;;;;;;;;;5014037;28;20109;-68
2022/04/02 15:23:58;;;;;;;9.65;3.60;;;;;;;;;;4997450;28;20475;-67
2022/04/02 15:26:24;;;;;;;5.55;3.17;;;;;;;;;;4994471;28;20090;-67
2022/04/02 15:29:01;;;;;;;6.28;3.30;;;;;;;;;;5010856;28;20030;-68
2022/04/02 15:31:30;;;;;;;5.90;3.00;;;;;;;;;;5013873;28;20021;-67
2022/04/02 15:33:56;;;;;;;5.53;3.05;;;;;;;;;;5013460;28;20029;-67
2022/04/02 15:36:21;;;;;;;5.72;3.05;;;;;;;;;;5010579;28;20030;-67
2022/04/02 15:38:51;;;;;;;8.50;2.97;;;;;;;;;;4993968;28;20045;-68
2022/04/02 15:41:16;;;;;;;5.13;3.15;;;;;;;;;;4999205;28;20041;-68